Terminal Aerodrome Forecast
Issued by NWS Springfield, MO

Home | Current Version | Previous Version | Text Only | Print | Product List | Glossary On
Versions: 1 2 3 4 5 6 7 8 9 10 11 12 13 14 15 16 17 18 19 20 21 22 23
000
FTUS43 KSGF 031000 AAA
TAFSGF
TAF AMD
KSGF 031009Z 0310/0406 00000KT 6SM BR VCSH OVC005
      TEMPO 0310/0313 4SM BR
     FM031500 01007KT P6SM BKN020
     FM032000 01007KT P6SM BKN040
     FM040000 03004KT P6SM SKC=

USA.gov is the U.S. government's official web portal to all federal, state and local government web resources and services.